Time;durP1;ratioP1;P1;durP2;ratioP2;P2;SDS_P1;SDS_P2;PMS_P1;PMS_P2;Temp;Humidity;BMP_temperature;BMP_pressure;BME280_temperature;BME280_humidity;BME280_pressure;Samples;Min_cycle;Max_cycle;Signal;HPM_P1;HPM_P2
2021/05/03 00:02:04;;;;;;;4.97;2.80;;;7.10;99.90;;;;;;6201885;22;20176;-65
2021/05/03 00:04:33;;;;;;;3.17;2.63;;;7.10;99.90;;;;;;6202040;23;20532;-65
2021/05/03 00:06:59;;;;;;;5.03;2.20;;;7.10;99.90;;;;;;6196998;23;20564;-66
2021/05/03 00:09:27;;;;;;;3.67;2.17;;;7.00;99.90;;;;;;6199245;23;20532;-65
2021/05/03 00:11:52;;;;;;;2.87;2.60;;;7.20;99.90;;;;;;6175517;23;20575;-65
2021/05/03 00:14:18;;;;;;;3.70;2.83;;;7.10;99.90;;;;;;6203246;23;20563;-65
2021/05/03 00:16:44;;;;;;;5.33;2.53;;;7.10;99.90;;;;;;6201261;23;20256;-66
2021/05/03 00:19:10;;;;;;;3.60;2.43;;;7.00;99.90;;;;;;6202435;23;20627;-66
2021/05/03 00:21:35;;;;;;;2.83;2.63;;;7.00;99.90;;;;;;6205118;23;20180;-66
2021/05/03 00:24:01;;;;;;;11.10;2.73;;;7.10;99.90;;;;;;6176208;23;20164;-66
2021/05/03 00:26:27;;;;;;;3.40;2.60;;;7.00;99.90;;;;;;6178956;23;20202;-65
2021/05/03 00:28:52;;;;;;;3.73;2.50;;;7.10;99.90;;;;;;6206141;23;20267;-65
2021/05/03 00:31:18;;;;;;;5.40;2.90;;;7.10;99.90;;;;;;6219402;23;20163;-67
2021/05/03 00:33:44;;;;;;;4.20;2.30;;;7.00;99.90;;;;;;6217970;23;20393;-67
2021/05/03 00:36:09;;;;;;;5.13;2.60;;;7.10;99.90;;;;;;6216660;22;20469;-67
2021/05/03 00:38:35;;;;;;;3.80;2.37;;;7.20;99.90;;;;;;6220214;23;20210;-68
2021/05/03 00:41:01;;;;;;;2.70;2.50;;;7.20;99.90;;;;;;6220741;23;20505;-66
2021/05/03 00:43:27;;;;;;;4.60;2.77;;;7.20;99.90;;;;;;6219361;23;20179;-66
2021/05/03 00:45:53;;;;;;;5.40;3.43;;;7.10;99.90;;;;;;6214104;23;20575;-66
2021/05/03 00:48:22;;;;;;;3.33;2.70;;;7.20;99.90;;;;;;6173250;22;21225;-65
2021/05/03 00:50:48;;;;;;;3.43;2.57;;;7.10;99.90;;;;;;6201831;23;21113;-65
2021/05/03 00:53:14;;;;;;;5.43;2.60;;;7.10;99.90;;;;;;6198767;23;20636;-66
2021/05/03 00:55:42;;;;;;;3.03;2.73;;;7.00;99.90;;;;;;6202744;23;20629;-65
2021/05/03 00:58:08;;;;;;;2.63;2.43;;;7.00;99.90;;;;;;6197332;23;20214;-66
2021/05/03 01:00:36;;;;;;;3.90;2.50;;;6.90;99.90;;;;;;6192215;23;21203;-66
2021/05/03 01:03:03;;;;;;;3.27;2.47;;;6.80;99.90;;;;;;6171859;23;20560;-66
2021/05/03 01:05:29;;;;;;;2.90;2.30;;;6.90;99.90;;;;;;6171161;23;20651;-66
2021/05/03 01:07:56;;;;;;;3.23;2.40;;;6.90;99.90;;;;;;6173544;23;20928;-65
2021/05/03 01:10:22;;;;;;;3.23;2.80;;;6.90;99.90;;;;;;6202670;23;20542;-65
2021/05/03 01:12:48;;;;;;;2.50;2.30;;;7.00;99.90;;;;;;6175140;23;21103;-66
2021/05/03 01:15:15;;;;;;;4.13;2.30;;;7.00;99.90;;;;;;6206102;22;21043;-67
2021/05/03 01:17:41;;;;;;;3.60;2.70;;;7.00;99.90;;;;;;6202365;23;20587;-66
2021/05/03 01:20:14;;;;;;;2.40;2.20;;;7.00;99.90;;;;;;6205078;23;20583;-66
2021/05/03 01:22:41;;;;;;;2.30;2.10;;;6.90;99.90;;;;;;6200604;23;20492;-67
2021/05/03 01:25:08;;;;;;;3.73;3.10;;;6.80;99.90;;;;;;6204645;23;20548;-66
2021/05/03 01:27:35;;;;;;;2.90;2.57;;;6.70;99.90;;;;;;6200991;23;20579;-66
2021/05/03 01:30:06;;;;;;;4.80;2.87;;;6.70;99.90;;;;;;6201251;23;21086;-67
2021/05/03 01:32:32;;;;;;;4.50;2.90;;;6.70;99.90;;;;;;6173550;23;20923;-66
2021/05/03 01:34:57;;;;;;;3.43;3.13;;;6.60;99.90;;;;;;6198345;23;20629;-65
2021/05/03 01:37:23;;;;;;;5.30;3.30;;;6.60;99.90;;;;;;6198773;23;20689;-66
2021/05/03 01:39:49;;;;;;;4.83;3.17;;;6.60;99.90;;;;;;6202011;22;20152;-66
2021/05/03 01:42:15;;;;;;;3.80;3.50;;;6.60;99.90;;;;;;6200866;22;20669;-65
2021/05/03 01:44:41;;;;;;;4.70;3.10;;;6.50;99.90;;;;;;6202139;23;20152;-66
2021/05/03 01:47:08;;;;;;;5.57;3.93;;;6.50;99.90;;;;;;6172504;23;20277;-66
2021/05/03 01:49:36;;;;;;;5.33;3.93;;;6.50;99.90;;;;;;6177698;23;20563;-66
2021/05/03 01:52:03;;;;;;;4.40;3.20;;;6.70;99.90;;;;;;6201977;23;20566;-66
2021/05/03 01:54:29;;;;;;;3.77;3.43;;;6.60;99.90;;;;;;6201234;23;20567;-66
2021/05/03 01:56:57;;;;;;;3.73;3.43;;;6.60;99.90;;;;;;6199871;23;20627;-66
2021/05/03 01:59:30;;;;;;;4.17;3.20;;;6.70;99.90;;;;;;6203125;23;20163;-66
2021/05/03 02:01:55;;;;;;;3.33;3.03;;;6.60;99.90;;;;;;6199873;22;20751;-66
2021/05/03 02:04:21;;;;;;;3.53;3.00;;;6.60;99.90;;;;;;6200324;23;20569;-66
2021/05/03 02:06:47;;;;;;;3.50;2.90;;;6.60;99.90;;;;;;6198342;23;20200;-65
2021/05/03 02:09:12;;;;;;;5.77;3.43;;;6.60;99.90;;;;;;6202054;23;20192;-66
2021/05/03 02:11:41;;;;;;;5.40;3.00;;;6.60;99.90;;;;;;6178214;23;20164;-67
2021/05/03 02:14:10;;;;;;;4.53;3.33;;;6.60;99.90;;;;;;6177036;23;20237;-66
2021/05/03 02:16:35;;;;;;;3.73;3.27;;;6.60;99.90;;;;;;6201008;23;21115;-65
2021/05/03 02:19:03;;;;;;;3.33;3.03;;;6.50;99.90;;;;;;6202476;23;20595;-65
2021/05/03 02:21:29;;;;;;;3.90;3.43;;;6.50;99.90;;;;;;6204304;23;20660;-67
2021/05/03 02:23:57;;;;;;;3.63;3.03;;;6.40;99.90;;;;;;6173840;22;20555;-66
2021/05/03 02:26:22;;;;;;;3.43;3.13;;;6.50;99.90;;;;;;6203493;23;20199;-67
2021/05/03 02:28:50;;;;;;;5.63;3.37;;;6.50;99.90;;;;;;6199269;23;20595;-66
2021/05/03 02:31:18;;;;;;;3.40;3.10;;;6.50;99.90;;;;;;6174869;22;20164;-66
2021/05/03 02:33:44;;;;;;;3.23;2.97;;;6.40;99.90;;;;;;6201095;22;20537;-65
2021/05/03 02:36:11;;;;;;;4.40;3.30;;;6.40;99.90;;;;;;6171010;22;21268;-66
2021/05/03 02:38:39;;;;;;;3.53;3.20;;;6.40;99.90;;;;;;6172794;23;20599;-67
2021/05/03 02:41:04;;;;;;;4.33;3.10;;;6.40;99.90;;;;;;6202904;23;20601;-67
2021/05/03 02:43:30;;;;;;;6.57;3.13;;;6.40;99.90;;;;;;6199417;23;20539;-67
2021/05/03 02:45:55;;;;;;;4.00;3.13;;;6.40;99.90;;;;;;6201795;23;20192;-66
2021/05/03 02:48:21;;;;;;;4.40;3.30;;;6.50;99.90;;;;;;6201148;23;20526;-68
2021/05/03 02:50:47;;;;;;;5.63;3.10;;;6.40;99.90;;;;;;6202033;23;20206;-66
2021/05/03 02:53:12;;;;;;;3.53;2.77;;;6.40;99.90;;;;;;6202851;23;20164;-66
2021/05/03 02:55:38;;;;;;;2.63;2.43;;;6.30;99.90;;;;;;6201905;23;20263;-67
2021/05/03 02:58:03;;;;;;;4.53;2.70;;;6.20;99.90;;;;;;6205921;23;20273;-67
2021/05/03 03:00:34;;;;;;;3.57;2.80;;;6.30;99.90;;;;;;6214893;23;20450;-66
2021/05/03 03:03:01;;;;;;;3.50;3.03;;;6.40;99.90;;;;;;6206860;23;20141;-66
2021/05/03 03:05:26;;;;;;;3.70;2.67;;;6.40;99.90;;;;;;6204806;23;20564;-66
2021/05/03 03:07:52;;;;;;;3.10;2.90;;;6.30;99.90;;;;;;6199649;23;20711;-67
2021/05/03 03:10:19;;;;;;;4.77;2.80;;;6.40;99.90;;;;;;6176484;23;20587;-66
2021/05/03 03:12:48;;;;;;;3.50;2.27;;;6.40;99.90;;;;;;6199979;23;20240;-67
2021/05/03 03:15:16;;;;;;;3.17;2.80;;;6.40;99.90;;;;;;6170240;23;20591;-67
2021/05/03 03:17:51;;;;;;;3.53;2.90;;;6.40;99.90;;;;;;6175238;23;20640;-67
2021/05/03 03:20:20;;;;;;;3.03;2.77;;;6.30;99.90;;;;;;6204573;23;20607;-66
2021/05/03 03:22:49;;;;;;;3.53;3.23;;;6.40;99.90;;;;;;6181472;23;20567;-66
2021/05/03 03:25:16;;;;;;;3.40;2.90;;;6.30;99.90;;;;;;6201670;22;20646;-67
2021/05/03 03:27:42;;;;;;;3.43;3.00;;;6.30;99.90;;;;;;6174673;23;21169;-67
2021/05/03 03:30:12;;;;;;;4.57;3.43;;;6.30;99.90;;;;;;6199362;23;20544;-66
2021/05/03 03:32:43;;;;;;;3.37;3.00;;;6.30;99.90;;;;;;6175515;23;20578;-66
2021/05/03 03:35:10;;;;;;;4.70;4.30;;;6.30;99.90;;;;;;6201213;23;21095;-66
2021/05/03 03:37:36;;;;;;;4.57;4.17;;;6.20;99.90;;;;;;6198971;23;20648;-67
2021/05/03 03:40:03;;;;;;;4.80;3.87;;;6.20;99.90;;;;;;6202766;23;21036;-66
2021/05/03 03:42:29;;;;;;;4.03;3.63;;;6.20;99.90;;;;;;6173674;23;20188;-66
2021/05/03 03:44:54;;;;;;;4.93;4.53;;;6.20;99.90;;;;;;6199407;22;20750;-66
2021/05/03 03:47:20;;;;;;;4.70;4.17;;;6.20;99.90;;;;;;6202573;23;20196;-67
2021/05/03 03:49:45;;;;;;;4.10;3.47;;;6.20;99.90;;;;;;6202356;23;20171;-66
2021/05/03 03:52:11;;;;;;;5.00;4.20;;;6.10;99.90;;;;;;6200887;23;20163;-70
2021/05/03 03:54:37;;;;;;;6.50;4.13;;;6.10;99.90;;;;;;6200623;23;20179;-66
2021/05/03 03:57:02;;;;;;;3.90;3.53;;;6.20;99.90;;;;;;6196528;23;20526;-66
2021/05/03 03:59:31;;;;;;;4.10;3.20;;;6.10;99.90;;;;;;6202303;23;20153;-65
2021/05/03 04:01:56;;;;;;;3.60;3.30;;;6.10;99.90;;;;;;6200073;22;20187;-66
2021/05/03 04:04:26;;;;;;;3.37;3.07;;;6.10;99.90;;;;;;6198947;23;20887;-66
2021/05/03 04:09:58;;;;;;;3.77;2.80;;;6.10;99.90;;;;;;6217316;22;20591;-65
2021/05/03 04:25:41;;;;;;;4.13;3.30;;;6.00;99.90;;;;;;6195874;23;20836;-68
2021/05/03 04:28:08;;;;;;;4.13;3.73;;;6.00;99.90;;;;;;6196077;22;21173;-67
2021/05/03 04:30:34;;;;;;;5.80;3.20;;;6.10;99.90;;;;;;6201400;23;20542;-67
2021/05/03 04:33:01;;;;;;;4.00;3.60;;;6.10;99.90;;;;;;6205265;23;20619;-66
2021/05/03 04:35:27;;;;;;;7.23;3.73;;;6.10;99.90;;;;;;6175157;23;21570;-68
2021/05/03 04:37:55;;;;;;;3.80;3.40;;;6.10;99.90;;;;;;6216621;23;20968;-66
2021/05/03 04:40:21;;;;;;;3.73;3.20;;;6.20;99.90;;;;;;6213680;23;20641;-66
2021/05/03 04:42:46;;;;;;;4.03;3.63;;;6.20;99.90;;;;;;6206058;23;20571;-66
2021/05/03 04:45:14;;;;;;;3.77;3.47;;;6.30;99.90;;;;;;6203619;23;20629;-66
2021/05/03 04:47:42;;;;;;;3.80;3.00;;;6.30;99.90;;;;;;6201881;23;20196;-66
2021/05/03 04:50:11;;;;;;;3.90;2.83;;;6.30;99.90;;;;;;6198827;23;20546;-63
2021/05/03 04:52:40;;;;;;;4.30;3.00;;;6.40;99.90;;;;;;6162908;22;20573;-63
2021/05/03 04:55:06;;;;;;;5.67;3.90;;;6.40;99.90;;;;;;6166642;23;20587;-62
2021/05/03 04:57:33;;;;;;;3.57;3.27;;;6.50;99.90;;;;;;6168931;22;20583;-62
2021/05/03 04:59:58;;;;;;;4.87;3.40;;;6.40;99.90;;;;;;6174507;23;20560;-61
2021/05/03 05:02:24;;;;;;;3.60;2.83;;;6.40;99.90;;;;;;6200895;23;20722;-62
2021/05/03 05:04:52;;;;;;;4.00;3.37;;;6.50;99.90;;;;;;6200193;23;20239;-63
2021/05/03 05:07:20;;;;;;;5.33;4.03;;;6.50;99.90;;;;;;6198478;22;20192;-63
2021/05/03 05:09:46;;;;;;;3.73;3.03;;;6.50;99.90;;;;;;6195669;22;20679;-61
2021/05/03 05:12:11;;;;;;;5.20;4.37;;;6.50;99.90;;;;;;6200926;23;20528;-63
2021/05/03 05:14:37;;;;;;;3.90;3.50;;;6.60;99.90;;;;;;6199972;23;20194;-63
2021/05/03 05:17:05;;;;;;;4.00;3.70;;;6.70;99.90;;;;;;6167610;23;20233;-63
2021/05/03 05:19:31;;;;;;;4.20;3.57;;;6.70;99.90;;;;;;6201593;22;20207;-63
2021/05/03 05:21:57;;;;;;;5.00;3.67;;;6.80;99.90;;;;;;6200665;23;20572;-61
2021/05/03 05:24:25;;;;;;;3.60;3.30;;;6.80;99.90;;;;;;6201244;23;20148;-65
2021/05/03 05:26:50;;;;;;;4.80;3.80;;;6.90;99.90;;;;;;6199750;23;20399;-63
2021/05/03 05:29:16;;;;;;;6.67;3.63;;;6.90;99.90;;;;;;6200658;23;20582;-63
2021/05/03 05:31:44;;;;;;;6.53;4.03;;;6.80;99.90;;;;;;6172496;22;20203;-63
2021/05/03 05:34:09;;;;;;;4.47;3.60;;;6.80;99.90;;;;;;6198238;22;20159;-63
2021/05/03 05:36:35;;;;;;;4.00;3.60;;;7.00;99.90;;;;;;6189366;23;20740;-63
2021/05/03 05:39:00;;;;;;;6.80;3.37;;;6.90;99.90;;;;;;6174384;22;20469;-63
2021/05/03 05:41:27;;;;;;;3.77;3.40;;;6.90;99.90;;;;;;6189939;23;20180;-63
2021/05/03 05:43:53;;;;;;;4.30;3.60;;;6.90;99.90;;;;;;6185089;23;20156;-64
2021/05/03 05:46:18;;;;;;;4.10;3.50;;;7.00;99.90;;;;;;6197988;23;20571;-63
2021/05/03 05:48:46;;;;;;;4.27;3.63;;;7.00;99.90;;;;;;6198413;23;20204;-63
2021/05/03 05:51:12;;;;;;;6.07;3.17;;;7.00;99.90;;;;;;6172457;23;20199;-63
2021/05/03 05:53:40;;;;;;;6.33;3.33;;;7.10;99.90;;;;;;6198860;22;20594;-62
2021/05/03 05:56:06;;;;;;;3.90;3.50;;;7.10;99.90;;;;;;6195428;22;20816;-62
2021/05/03 05:58:32;;;;;;;4.20;3.73;;;7.20;99.90;;;;;;6198595;22;20587;-64
2021/05/03 06:00:59;;;;;;;3.03;2.83;;;7.20;99.90;;;;;;6200441;23;20575;-64
2021/05/03 06:03:26;;;;;;;5.10;3.40;;;7.30;99.90;;;;;;6193637;23;20548;-64
2021/05/03 06:05:51;;;;;;;3.67;3.37;;;7.50;99.90;;;;;;6162148;23;20667;-62
2021/05/03 06:08:17;;;;;;;3.70;3.27;;;7.40;99.90;;;;;;6195484;23;20974;-64
2021/05/03 06:10:42;;;;;;;3.40;3.10;;;7.40;99.90;;;;;;6194593;22;20160;-64
2021/05/03 06:13:10;;;;;;;3.60;3.27;;;7.40;99.90;;;;;;6183873;22;20193;-66
2021/05/03 06:15:36;;;;;;;4.13;3.83;;;7.50;99.90;;;;;;6171423;23;20188;-66
2021/05/03 06:18:05;;;;;;;6.03;3.50;;;7.30;99.90;;;;;;6170578;23;20601;-66
2021/05/03 06:20:31;;;;;;;5.30;3.40;;;7.30;99.90;;;;;;6200530;23;20371;-66
2021/05/03 06:23:04;;;;;;;3.50;3.20;;;7.30;99.90;;;;;;6205735;23;20527;-66
2021/05/03 06:25:30;;;;;;;3.40;3.10;;;7.30;99.90;;;;;;6197417;23;20816;-66
2021/05/03 06:27:56;;;;;;;3.93;3.57;;;7.30;99.90;;;;;;6189790;22;20592;-65
2021/05/03 06:30:23;;;;;;;4.20;3.60;;;7.40;99.90;;;;;;6164482;23;20857;-65
2021/05/03 06:32:50;;;;;;;5.00;3.50;;;7.40;99.90;;;;;;6195465;22;20152;-66
2021/05/03 06:35:16;;;;;;;3.77;3.47;;;7.50;99.90;;;;;;6169221;23;20623;-65
2021/05/03 06:37:43;;;;;;;5.80;3.00;;;7.50;99.90;;;;;;6171214;22;20643;-67
2021/05/03 06:40:10;;;;;;;3.87;3.47;;;7.60;99.90;;;;;;6197704;23;20574;-66
2021/05/03 06:42:36;;;;;;;6.20;3.60;;;7.60;99.90;;;;;;6170999;23;20571;-66
2021/05/03 06:45:05;;;;;;;3.93;3.17;;;7.70;99.90;;;;;;6196474;23;20581;-65
2021/05/03 06:47:31;;;;;;;2.93;2.73;;;7.90;99.90;;;;;;6172917;23;20196;-66
2021/05/03 06:49:57;;;;;;;4.20;3.17;;;7.90;99.90;;;;;;6172329;22;20651;-67
2021/05/03 06:52:23;;;;;;;3.90;3.03;;;7.90;99.90;;;;;;6196457;23;20568;-65
2021/05/03 06:54:49;;;;;;;3.13;2.83;;;7.90;99.90;;;;;;6200091;23;20153;-67
2021/05/03 06:57:16;;;;;;;2.90;2.70;;;7.90;99.90;;;;;;6169885;23;20232;-66
2021/05/03 06:59:42;;;;;;;3.40;2.70;;;8.00;99.90;;;;;;6198873;22;20911;-66
2021/05/03 07:02:09;;;;;;;3.13;2.50;;;8.10;99.90;;;;;;6170277;23;21326;-67
2021/05/03 07:04:38;;;;;;;2.70;2.50;;;8.10;99.90;;;;;;6197434;22;20497;-66
2021/05/03 07:07:04;;;;;;;2.83;2.63;;;8.20;99.90;;;;;;6168634;23;21131;-65
2021/05/03 07:09:30;;;;;;;3.20;2.80;;;8.40;99.90;;;;;;6198265;23;21028;-64
2021/05/03 07:11:57;;;;;;;3.13;2.80;;;8.50;99.90;;;;;;6170077;22;20872;-64
2021/05/03 07:14:25;;;;;;;3.17;2.87;;;8.50;99.90;;;;;;6195886;22;20172;-63
2021/05/03 07:16:50;;;;;;;2.87;2.30;;;8.60;99.90;;;;;;6196877;23;20583;-63
2021/05/03 07:19:16;;;;;;;3.80;2.33;;;8.60;99.90;;;;;;6197223;23;20602;-64
2021/05/03 07:21:41;;;;;;;2.30;2.10;;;8.60;99.90;;;;;;6171784;23;20589;-63
2021/05/03 07:24:09;;;;;;;3.17;1.73;;;8.70;99.90;;;;;;6198050;22;20152;-64
2021/05/03 07:26:37;;;;;;;5.10;2.23;;;8.80;99.90;;;;;;6172352;23;20173;-64
2021/05/03 07:29:06;;;;;;;3.00;2.33;;;8.90;99.90;;;;;;6195527;23;20598;-63
2021/05/03 07:31:34;;;;;;;3.57;2.73;;;8.90;99.90;;;;;;6172993;22;21095;-63
2021/05/03 07:34:00;;;;;;;2.47;2.27;;;8.90;99.90;;;;;;6196042;23;20544;-63
2021/05/03 07:36:27;;;;;;;2.40;2.10;;;9.00;99.90;;;;;;6199542;23;20598;-64
2021/05/03 07:38:53;;;;;;;3.07;2.10;;;9.20;99.90;;;;;;6191891;23;20214;-62
2021/05/03 07:41:19;;;;;;;2.20;1.80;;;9.20;99.90;;;;;;6196858;23;20670;-64
2021/05/03 07:43:44;;;;;;;2.30;2.17;;;9.20;99.90;;;;;;6195803;23;20152;-64
2021/05/03 07:46:10;;;;;;;2.70;2.50;;;9.30;99.90;;;;;;6200158;22;20168;-62
2021/05/03 07:48:35;;;;;;;2.80;2.50;;;9.30;99.90;;;;;;6191723;22;20200;-62
2021/05/03 07:51:01;;;;;;;3.53;2.27;;;9.40;99.90;;;;;;6195654;23;20505;-64
2021/05/03 07:53:27;;;;;;;4.17;2.20;;;9.30;99.90;;;;;;6193046;23;20156;-62
2021/05/03 07:55:54;;;;;;;2.90;2.70;;;9.40;99.90;;;;;;6188417;23;20183;-62
2021/05/03 07:58:20;;;;;;;3.17;1.70;;;9.40;99.90;;;;;;6194616;22;20208;-63
2021/05/03 08:00:47;;;;;;;2.80;2.03;;;9.40;99.90;;;;;;6203339;22;20678;-64
2021/05/03 08:03:13;;;;;;;2.90;2.20;;;9.50;99.90;;;;;;6180787;22;20164;-64
2021/05/03 08:05:38;;;;;;;2.90;2.60;;;9.50;99.90;;;;;;6177604;22;20676;-64
2021/05/03 08:08:04;;;;;;;5.20;2.40;;;9.60;99.90;;;;;;6206223;23;20618;-66
2021/05/03 08:10:30;;;;;;;2.40;2.20;;;9.50;99.90;;;;;;6201531;22;20492;-61
2021/05/03 08:12:55;;;;;;;2.23;2.00;;;9.60;99.90;;;;;;6198242;23;20171;-64
2021/05/03 08:15:23;;;;;;;2.47;2.27;;;9.50;99.90;;;;;;6198483;23;20184;-64
2021/05/03 08:17:49;;;;;;;3.73;2.10;;;9.60;99.90;;;;;;6196661;22;20260;-65
2021/05/03 08:20:17;;;;;;;3.13;2.17;;;9.60;99.90;;;;;;6189083;23;20535;-65
2021/05/03 08:22:43;;;;;;;2.27;2.13;;;9.70;99.90;;;;;;6164279;23;20160;-64
2021/05/03 08:25:12;;;;;;;2.60;2.40;;;9.70;99.90;;;;;;6190779;23;20571;-64
2021/05/03 08:27:37;;;;;;;2.23;2.10;;;9.80;99.90;;;;;;6192937;23;20648;-67
2021/05/03 08:30:08;;;;;;;2.87;2.30;;;9.90;99.90;;;;;;6172465;23;20567;-67
2021/05/03 08:32:35;;;;;;;2.23;2.03;;;10.00;99.90;;;;;;6167996;23;20175;-67
2021/05/03 08:35:00;;;;;;;2.60;2.40;;;10.10;99.90;;;;;;6191166;23;20523;-66
2021/05/03 08:37:26;;;;;;;2.97;2.43;;;10.10;99.90;;;;;;6185521;23;20644;-63
2021/05/03 08:39:52;;;;;;;3.30;2.10;;;10.10;99.90;;;;;;6192730;23;20535;-64
2021/05/03 08:42:20;;;;;;;2.47;2.27;;;10.20;99.90;;;;;;6194248;23;20180;-64
2021/05/03 08:44:48;;;;;;;3.27;2.30;;;10.10;99.90;;;;;;6194274;23;20164;-63
2021/05/03 08:47:13;;;;;;;3.03;2.83;;;10.10;99.90;;;;;;6193556;22;20622;-64
2021/05/03 08:49:57;;;;;;;2.83;2.57;;;10.20;99.90;;;;;;6170515;23;20556;-64
2021/05/03 08:52:30;;;;;;;2.33;2.13;;;10.30;99.90;;;;;;6186002;22;20594;-64
2021/05/03 08:54:56;;;;;;;2.50;2.30;;;10.40;99.90;;;;;;6189585;22;20504;-64
2021/05/03 08:57:22;;;;;;;3.23;2.17;;;10.40;99.90;;;;;;6186901;23;20644;-62
2021/05/03 08:59:47;;;;;;;2.60;2.40;;;10.40;99.90;;;;;;6191205;23;20582;-64
2021/05/03 09:02:17;;;;;;;3.80;2.37;;;10.30;99.90;;;;;;6162775;22;20595;-62
2021/05/03 09:04:43;;;;;;;2.80;2.60;;;10.30;99.90;;;;;;6185303;22;20152;-63
2021/05/03 09:07:14;;;;;;;2.83;2.43;;;10.50;99.90;;;;;;6186450;23;20567;-63
2021/05/03 09:09:41;;;;;;;3.10;2.87;;;10.60;99.90;;;;;;6188898;23;20504;-64
2021/05/03 09:12:17;;;;;;;2.80;2.60;;;10.60;99.90;;;;;;6159266;23;20973;-64
2021/05/03 09:15:00;;;;;;;4.70;3.30;;;10.50;99.90;;;;;;6185347;23;20590;-62
2021/05/03 09:17:31;;;;;;;3.83;3.17;;;10.50;99.90;;;;;;6187748;23;20633;-63
2021/05/03 09:19:58;;;;;;;3.93;3.20;;;10.60;99.90;;;;;;6187553;23;20692;-64
2021/05/03 09:22:36;;;;;;;3.27;2.97;;;10.60;99.90;;;;;;6158866;23;20602;-61
2021/05/03 09:25:23;;;;;;;7.63;3.10;;;10.60;99.90;;;;;;6160849;23;20602;-64
2021/05/03 09:27:49;;;;;;;3.17;2.90;;;10.60;99.90;;;;;;6187446;22;20586;-63
2021/05/03 09:30:30;;;;;;;3.00;2.70;;;10.60;99.90;;;;;;6164096;23;21091;-61
2021/05/03 09:33:30;;;;;;;5.40;3.20;;;10.60;99.90;;;;;;6186814;23;20519;-63
2021/05/03 09:36:18;;;;;;;2.90;2.70;;;10.60;99.90;;;;;;6183177;23;21180;-64
2021/05/03 09:38:44;;;;;;;3.20;2.90;;;10.40;99.90;;;;;;6187320;23;20587;-64
2021/05/03 09:41:20;;;;;;;3.37;3.17;;;10.40;99.90;;;;;;6187269;22;20594;-63
2021/05/03 09:43:50;;;;;;;3.93;3.63;;;10.40;99.90;;;;;;6185741;23;20511;-64
2021/05/03 09:46:38;;;;;;;4.00;3.23;;;10.30;99.90;;;;;;6186817;23;20700;-63
2021/05/03 09:49:10;;;;;;;7.27;3.90;;;10.40;99.90;;;;;;6193595;23;21143;-64
2021/05/03 09:51:51;;;;;;;3.80;3.50;;;10.50;99.90;;;;;;6166350;23;20612;-62
2021/05/03 09:54:27;;;;;;;4.20;3.47;;;10.50;99.90;;;;;;6186909;23;20518;-64
2021/05/03 09:57:09;;;;;;;4.60;3.40;;;10.50;99.90;;;;;;6188232;23;20671;-62
2021/05/03 09:59:47;;;;;;;4.93;3.80;;;10.40;99.90;;;;;;6190106;23;20543;-63
2021/05/03 10:02:25;;;;;;;4.30;3.90;;;10.40;99.90;;;;;;6193541;23;21127;-64
2021/05/03 10:05:09;;;;;;;5.37;4.97;;;10.50;99.90;;;;;;6192477;23;20511;-64
2021/05/03 10:07:39;;;;;;;5.40;5.00;;;10.50;99.90;;;;;;6192739;22;20590;-64
2021/05/03 10:10:17;;;;;;;8.43;7.03;;;10.50;99.90;;;;;;6147555;23;20566;-64
2021/05/03 10:12:43;;;;;;;7.30;6.60;;;10.60;99.90;;;;;;6193858;23;20559;-64
2021/05/03 10:15:11;;;;;;;6.80;6.30;;;10.70;99.90;;;;;;6201873;23;20547;-63
2021/05/03 10:17:39;;;;;;;6.80;6.30;;;10.50;99.90;;;;;;6172102;22;21218;-64
2021/05/03 10:20:10;;;;;;;6.40;5.90;;;10.50;99.90;;;;;;6190045;23;20547;-64
2021/05/03 10:22:38;;;;;;;5.70;5.20;;;10.50;99.90;;;;;;6182341;23;20610;-65
2021/05/03 10:25:12;;;;;;;5.60;5.20;;;10.70;99.90;;;;;;6175653;23;20600;-63
2021/05/03 10:27:41;;;;;;;5.90;5.50;;;10.80;99.90;;;;;;6192515;23;21052;-63
2021/05/03 10:30:20;;;;;;;5.60;5.20;;;10.70;99.90;;;;;;6195587;23;20542;-64
2021/05/03 10:33:03;;;;;;;5.43;5.03;;;10.70;99.90;;;;;;6164794;22;20885;-61
2021/05/03 10:35:37;;;;;;;5.17;4.87;;;10.60;99.90;;;;;;6186342;23;20606;-63
2021/05/03 10:38:07;;;;;;;5.77;5.37;;;10.60;99.90;;;;;;6194568;23;20573;-62
2021/05/03 10:40:33;;;;;;;4.60;4.30;;;10.60;99.90;;;;;;6192808;23;21070;-63
2021/05/03 10:43:01;;;;;;;4.40;4.10;;;10.80;99.90;;;;;;6166403;22;20571;-62
2021/05/03 10:46:50;;;;;;;3.77;3.43;;;10.90;99.90;;;;;;6167604;22;20181;-63
2021/05/03 10:51:29;;;;;;;4.17;3.87;;;11.10;99.90;;;;;;6205878;23;20535;-63
2021/05/03 10:53:55;;;;;;;4.60;4.20;;;11.00;99.90;;;;;;6198918;22;20630;-62
2021/05/03 10:56:39;;;;;;;4.97;4.60;;;10.90;99.90;;;;;;6196714;23;21430;-62
2021/05/03 10:59:16;;;;;;;4.77;4.37;;;11.00;99.90;;;;;;6197910;23;21131;-63
2021/05/03 11:02:08;;;;;;;5.13;4.73;;;10.90;99.90;;;;;;6198914;23;20579;-63
2021/05/03 11:04:35;;;;;;;5.50;5.10;;;11.00;99.90;;;;;;6192319;23;20690;-61
2021/05/03 11:07:10;;;;;;;6.03;5.50;;;10.90;99.90;;;;;;6197175;22;20558;-62
2021/05/03 11:09:39;;;;;;;5.80;5.40;;;10.80;99.90;;;;;;6192833;22;20566;-62
2021/05/03 11:12:05;;;;;;;5.80;5.30;;;10.90;99.90;;;;;;6195024;23;20579;-62
2021/05/03 11:14:32;;;;;;;8.00;7.40;;;11.00;99.90;;;;;;6164481;23;20618;-60
2021/05/03 11:17:01;;;;;;;7.17;6.60;;;11.00;99.90;;;;;;6194444;23;20180;-68
2021/05/03 11:19:35;;;;;;;7.83;7.23;;;11.00;99.90;;;;;;6199177;22;20539;-62
2021/05/03 11:22:04;;;;;;;7.47;6.97;;;11.10;99.90;;;;;;6170597;22;21302;-63
2021/05/03 11:24:36;;;;;;;7.23;6.73;;;11.00;99.90;;;;;;6193996;23;20592;-62
2021/05/03 11:29:44;;;;;;;7.60;7.00;;;11.10;99.90;;;;;;6202386;23;20540;-61
2021/05/03 11:32:11;;;;;;;7.50;7.00;;;11.20;99.90;;;;;;6195515;23;20144;-62
2021/05/03 11:37:53;;;;;;;7.20;6.70;;;11.10;99.90;;;;;;6198677;23;20543;-62
2021/05/03 11:45:30;;;;;;;7.87;7.27;;;11.20;99.90;;;;;;6205972;23;20559;-62
2021/05/03 11:47:59;;;;;;;7.87;7.27;;;11.20;99.90;;;;;;6202273;22;20532;-62
2021/05/03 11:50:27;;;;;;;7.73;7.13;;;11.20;99.90;;;;;;6167643;22;20632;-62
2021/05/03 11:52:53;;;;;;;7.77;7.20;;;11.10;99.90;;;;;;6190260;23;21165;-62
2021/05/03 11:55:22;;;;;;;9.20;8.40;;;11.10;99.90;;;;;;6191910;23;20989;-67
2021/05/03 11:57:48;;;;;;;8.80;8.00;;;11.10;99.90;;;;;;6157756;22;20171;-66
2021/05/03 12:00:22;;;;;;;8.50;7.80;;;11.10;99.90;;;;;;6190202;23;20966;-64
2021/05/03 12:03:03;;;;;;;8.37;7.77;;;11.10;99.90;;;;;;6189833;23;20524;-64
2021/05/03 12:05:30;;;;;;;8.77;8.10;;;11.10;99.90;;;;;;6180238;23;20595;-63
2021/05/03 12:07:55;;;;;;;8.50;7.90;;;11.10;99.90;;;;;;6191252;23;21075;-63
2021/05/03 12:10:21;;;;;;;8.40;7.70;;;11.10;99.90;;;;;;6187832;23;20532;-67
2021/05/03 12:12:54;;;;;;;9.10;8.30;;;11.10;99.90;;;;;;6190190;22;20254;-65
2021/05/03 12:15:28;;;;;;;8.60;8.00;;;11.10;99.90;;;;;;6193884;23;20700;-64
2021/05/03 12:17:57;;;;;;;9.20;8.40;;;11.10;99.90;;;;;;6167794;23;20581;-65
2021/05/03 12:20:27;;;;;;;9.40;8.60;;;11.00;99.90;;;;;;6180250;23;20642;-63
2021/05/03 12:23:01;;;;;;;9.83;9.00;;;10.90;99.90;;;;;;6152805;23;20948;-66
2021/05/03 12:25:31;;;;;;;9.07;8.37;;;10.90;99.90;;;;;;6180577;23;21087;-65
2021/05/03 12:27:56;;;;;;;9.20;8.50;;;11.00;99.90;;;;;;6166932;23;20595;-64
2021/05/03 12:30:24;;;;;;;9.70;9.00;;;11.20;99.90;;;;;;6159960;23;21392;-66
2021/05/03 12:32:50;;;;;;;9.87;9.03;;;11.30;99.90;;;;;;6191463;23;20184;-65
2021/05/03 12:35:17;;;;;;;8.97;8.27;;;11.30;99.90;;;;;;6188315;23;20660;-66
2021/05/03 12:37:43;;;;;;;10.47;9.57;;;11.30;99.90;;;;;;6166930;23;20164;-61
2021/05/03 12:40:22;;;;;;;10.70;9.80;;;11.30;99.90;;;;;;6192394;22;20558;-62
2021/05/03 12:42:52;;;;;;;10.63;9.63;;;11.40;99.90;;;;;;6165316;23;20575;-62
2021/05/03 12:57:43;;;;;;;11.23;10.23;;;11.70;99.90;;;;;;6185454;22;21364;-63
2021/05/03 13:00:09;;;;;;;11.10;10.20;;;11.60;99.90;;;;;;6208590;22;20563;-62
2021/05/03 13:02:54;;;;;;;11.03;10.07;;;11.60;99.90;;;;;;6195616;22;20551;-62
2021/05/03 13:05:27;;;;;;;11.57;10.47;;;11.70;99.90;;;;;;6193981;22;20607;-63
2021/05/03 13:08:05;;;;;;;10.67;9.87;;;11.70;99.90;;;;;;6188840;22;20536;-62
2021/05/03 13:29:55;;;;;;;10.40;9.40;;;13.30;99.90;;;;;;6195069;23;20574;-62
2021/05/03 13:32:27;;;;;;;10.53;9.57;;;13.40;99.90;;;;;;6196758;22;20625;-62
2021/05/03 13:34:53;;;;;;;11.00;10.10;;;13.40;99.90;;;;;;6192761;22;21214;-62
2021/05/03 13:37:21;;;;;;;9.87;9.07;;;13.60;99.90;;;;;;6187423;23;20766;-63
2021/05/03 13:39:50;;;;;;;9.70;8.90;;;13.90;99.90;;;;;;6160671;23;20597;-62
2021/05/03 13:42:16;;;;;;;10.53;9.73;;;14.10;99.90;;;;;;6166771;23;21057;-62
2021/05/03 13:44:44;;;;;;;9.50;8.70;;;14.30;99.90;;;;;;6195879;23;20606;-62
2021/05/03 13:47:12;;;;;;;11.17;10.27;;;14.30;99.90;;;;;;6167222;23;21128;-62
2021/05/03 13:49:38;;;;;;;10.37;9.57;;;14.50;99.90;;;;;;6194197;23;20538;-63
2021/05/03 13:52:06;;;;;;;11.07;10.17;;;14.70;99.90;;;;;;6189836;23;20540;-62
2021/05/03 13:54:32;;;;;;;11.07;10.07;;;14.90;99.90;;;;;;6196792;23;20606;-62
2021/05/03 13:57:06;;;;;;;11.13;10.20;;;15.00;99.90;;;;;;6195020;23;20611;-63
2021/05/03 13:59:33;;;;;;;12.67;11.67;;;15.00;99.90;;;;;;6198730;23;20502;-62
2021/05/03 14:01:59;;;;;;;12.83;11.83;;;15.10;99.90;;;;;;6193945;23;20584;-62